sensor_id;sensor_type;location;lat;lon;timestamp;temperature;humidity
4874;DHT22;2451;49.970;9.068;2022-07-09T00:00:49;17.30;99.90
4874;DHT22;2451;49.970;9.068;2022-07-09T00:03:15;17.30;99.90
4874;DHT22;2451;49.970;9.068;2022-07-09T00:05:40;17.20;99.90
4874;DHT22;2451;49.970;9.068;2022-07-09T00:08:06;17.20;99.90
4874;DHT22;2451;49.970;9.068;2022-07-09T00:10:31;17.20;99.90
4874;DHT22;2451;49.970;9.068;2022-07-09T00:12:57;17.10;99.90
4874;DHT22;2451;49.970;9.068;2022-07-09T00:15:22;17.10;99.90
4874;DHT22;2451;49.970;9.068;2022-07-09T00:17:50;17.00;99.90
4874;DHT22;2451;49.970;9.068;2022-07-09T00:20:15;17.00;99.90
4874;DHT22;2451;49.970;9.068;2022-07-09T00:22:40;17.00;99.90
4874;DHT22;2451;49.970;9.068;2022-07-09T00:25:06;16.90;99.90
4874;DHT22;2451;49.970;9.068;2022-07-09T00:27:32;16.90;99.90
4874;DHT22;2451;49.970;9.068;2022-07-09T00:29:57;16.80;99.90
4874;DHT22;2451;49.970;9.068;2022-07-09T00:32:23;16.80;99.90
4874;DHT22;2451;49.970;9.068;2022-07-09T00:34:48;16.80;99.90
4874;DHT22;2451;49.970;9.068;2022-07-09T00:37:14;16.80;99.90
4874;DHT22;2451;49.970;9.068;2022-07-09T00:39:39;16.70;99.90
4874;DHT22;2451;49.970;9.068;2022-07-09T00:42:07;16.70;99.90
4874;DHT22;2451;49.970;9.068;2022-07-09T00:44:33;16.70;99.90
4874;DHT22;2451;49.970;9.068;2022-07-09T00:46:59;16.60;99.90
4874;DHT22;2451;49.970;9.068;2022-07-09T00:49:29;16.50;99.90
4874;DHT22;2451;49.970;9.068;2022-07-09T00:51:56;16.50;99.90
4874;DHT22;2451;49.970;9.068;2022-07-09T00:54:23;16.50;99.90
4874;DHT22;2451;49.970;9.068;2022-07-09T00:56:50;16.50;99.90
4874;DHT22;2451;49.970;9.068;2022-07-09T00:59:17;16.40;99.90
4874;DHT22;2451;49.970;9.068;2022-07-09T01:01:43;16.30;99.90
4874;DHT22;2451;49.970;9.068;2022-07-09T01:04:09;16.30;99.90
4874;DHT22;2451;49.970;9.068;2022-07-09T01:06:34;16.40;99.90
4874;DHT22;2451;49.970;9.068;2022-07-09T01:09:03;16.30;99.90
4874;DHT22;2451;49.970;9.068;2022-07-09T01:11:29;16.30;99.90
4874;DHT22;2451;49.970;9.068;2022-07-09T01:13:55;16.20;99.90
4874;DHT22;2451;49.970;9.068;2022-07-09T01:16:20;16.30;99.90
4874;DHT22;2451;49.970;9.068;2022-07-09T01:18:47;16.20;99.90
4874;DHT22;2451;49.970;9.068;2022-07-09T01:21:13;16.30;99.90
4874;DHT22;2451;49.970;9.068;2022-07-09T01:23:39;16.20;99.90
4874;DHT22;2451;49.970;9.068;2022-07-09T01:26:05;16.20;99.90
4874;DHT22;2451;49.970;9.068;2022-07-09T01:28:31;16.20;99.90
4874;DHT22;2451;49.970;9.068;2022-07-09T01:30:56;16.10;99.90
4874;DHT22;2451;49.970;9.068;2022-07-09T01:33:22;16.10;99.90
4874;DHT22;2451;49.970;9.068;2022-07-09T01:35:47;16.00;99.90
4874;DHT22;2451;49.970;9.068;2022-07-09T01:38:13;15.90;99.90
4874;DHT22;2451;49.970;9.068;2022-07-09T01:40:38;15.90;99.90
4874;DHT22;2451;49.970;9.068;2022-07-09T01:43:04;15.80;99.90
4874;DHT22;2451;49.970;9.068;2022-07-09T01:45:29;15.80;99.90
4874;DHT22;2451;49.970;9.068;2022-07-09T01:47:55;15.70;99.90
4874;DHT22;2451;49.970;9.068;2022-07-09T01:50:21;15.70;99.90
4874;DHT22;2451;49.970;9.068;2022-07-09T01:52:46;15.70;99.90
4874;DHT22;2451;49.970;9.068;2022-07-09T01:55:12;15.70;99.90
4874;DHT22;2451;49.970;9.068;2022-07-09T01:57:37;15.70;99.90
4874;DHT22;2451;49.970;9.068;2022-07-09T02:00:04;15.70;99.90
4874;DHT22;2451;49.970;9.068;2022-07-09T02:02:30;15.70;99.90
4874;DHT22;2451;49.970;9.068;2022-07-09T02:04:56;15.70;99.90
4874;DHT22;2451;49.970;9.068;2022-07-09T02:07:21;15.60;99.90
4874;DHT22;2451;49.970;9.068;2022-07-09T02:09:47;15.60;99.90
4874;DHT22;2451;49.970;9.068;2022-07-09T02:12:15;15.60;99.90
4874;DHT22;2451;49.970;9.068;2022-07-09T02:14:41;15.50;99.90
4874;DHT22;2451;49.970;9.068;2022-07-09T02:17:06;15.50;99.90
4874;DHT22;2451;49.970;9.068;2022-07-09T02:19:32;15.40;99.90
4874;DHT22;2451;49.970;9.068;2022-07-09T02:21:57;15.40;99.90
4874;DHT22;2451;49.970;9.068;2022-07-09T02:24:23;15.40;99.90
4874;DHT22;2451;49.970;9.068;2022-07-09T02:26:48;15.40;99.90
4874;DHT22;2451;49.970;9.068;2022-07-09T02:29:14;15.30;99.90
4874;DHT22;2451;49.970;9.068;2022-07-09T02:31:40;15.30;99.90
4874;DHT22;2451;49.970;9.068;2022-07-09T02:34:05;15.30;99.90
4874;DHT22;2451;49.970;9.068;2022-07-09T02:36:31;15.30;99.90
4874;DHT22;2451;49.970;9.068;2022-07-09T02:38:56;15.20;99.90
4874;DHT22;2451;49.970;9.068;2022-07-09T02:41:22;15.10;99.90
4874;DHT22;2451;49.970;9.068;2022-07-09T02:43:47;15.10;99.90
4874;DHT22;2451;49.970;9.068;2022-07-09T02:46:13;15.00;99.90
4874;DHT22;2451;49.970;9.068;2022-07-09T02:48:38;15.00;99.90
4874;DHT22;2451;49.970;9.068;2022-07-09T02:51:04;15.00;99.90
4874;DHT22;2451;49.970;9.068;2022-07-09T02:53:30;15.00;99.90
4874;DHT22;2451;49.970;9.068;2022-07-09T02:55:55;14.90;99.90
4874;DHT22;2451;49.970;9.068;2022-07-09T02:58:21;14.90;99.90
4874;DHT22;2451;49.970;9.068;2022-07-09T03:00:47;14.90;99.90
4874;DHT22;2451;49.970;9.068;2022-07-09T03:03:13;14.80;99.90
4874;DHT22;2451;49.970;9.068;2022-07-09T03:05:38;14.80;99.90
4874;DHT22;2451;49.970;9.068;2022-07-09T03:08:05;14.90;99.90
4874;DHT22;2451;49.970;9.068;2022-07-09T03:10:31;14.90;99.90
4874;DHT22;2451;49.970;9.068;2022-07-09T03:12:56;14.90;99.90
4874;DHT22;2451;49.970;9.068;2022-07-09T03:15:22;14.90;99.90
4874;DHT22;2451;49.970;9.068;2022-07-09T03:17:48;14.90;99.90
4874;DHT22;2451;49.970;9.068;2022-07-09T03:20:14;14.90;99.90
4874;DHT22;2451;49.970;9.068;2022-07-09T03:22:40;14.90;99.90
4874;DHT22;2451;49.970;9.068;2022-07-09T03:25:07;14.90;99.90
4874;DHT22;2451;49.970;9.068;2022-07-09T03:27:33;14.90;99.90
4874;DHT22;2451;49.970;9.068;2022-07-09T03:29:59;14.90;99.90
4874;DHT22;2451;49.970;9.068;2022-07-09T03:32:25;14.90;99.90
4874;DHT22;2451;49.970;9.068;2022-07-09T03:34:50;14.90;99.90
4874;DHT22;2451;49.970;9.068;2022-07-09T03:37:18;14.90;99.90
4874;DHT22;2451;49.970;9.068;2022-07-09T03:39:43;14.90;99.90
4874;DHT22;2451;49.970;9.068;2022-07-09T03:42:10;14.90;99.90
4874;DHT22;2451;49.970;9.068;2022-07-09T03:44:36;15.00;99.90
4874;DHT22;2451;49.970;9.068;2022-07-09T03:47:02;15.00;99.90
4874;DHT22;2451;49.970;9.068;2022-07-09T03:49:28;15.00;99.90
4874;DHT22;2451;49.970;9.068;2022-07-09T03:51:53;15.00;99.90
4874;DHT22;2451;49.970;9.068;2022-07-09T03:54:19;15.00;99.90
4874;DHT22;2451;49.970;9.068;2022-07-09T03:56:44;14.90;99.90
4874;DHT22;2451;49.970;9.068;2022-07-09T03:59:10;14.90;99.90
4874;DHT22;2451;49.970;9.068;2022-07-09T04:01:35;15.00;99.90
4874;DHT22;2451;49.970;9.068;2022-07-09T04:04:01;15.00;99.90
4874;DHT22;2451;49.970;9.068;2022-07-09T04:06:27;15.10;99.90
4874;DHT22;2451;49.970;9.068;2022-07-09T04:08:52;15.10;99.90
4874;DHT22;2451;49.970;9.068;2022-07-09T04:11:18;15.00;99.90
4874;DHT22;2451;49.970;9.068;2022-07-09T04:13:43;15.10;99.90
4874;DHT22;2451;49.970;9.068;2022-07-09T04:16:09;15.10;99.90
4874;DHT22;2451;49.970;9.068;2022-07-09T04:18:35;15.20;99.90
4874;DHT22;2451;49.970;9.068;2022-07-09T04:21:01;15.20;99.90
4874;DHT22;2451;49.970;9.068;2022-07-09T04:23:27;15.30;99.90
4874;DHT22;2451;49.970;9.068;2022-07-09T04:25:53;15.30;99.90
4874;DHT22;2451;49.970;9.068;2022-07-09T04:28:19;15.30;99.90
4874;DHT22;2451;49.970;9.068;2022-07-09T04:30:46;15.30;99.90
4874;DHT22;2451;49.970;9.068;2022-07-09T04:33:11;15.30;99.90
4874;DHT22;2451;49.970;9.068;2022-07-09T04:35:37;15.30;99.90
4874;DHT22;2451;49.970;9.068;2022-07-09T04:38:03;15.30;99.90
4874;DHT22;2451;49.970;9.068;2022-07-09T04:40:28;15.30;99.90
4874;DHT22;2451;49.970;9.068;2022-07-09T04:42:54;15.30;99.90
4874;DHT22;2451;49.970;9.068;2022-07-09T04:45:20;15.30;99.90
4874;DHT22;2451;49.970;9.068;2022-07-09T04:47:46;15.30;99.90
4874;DHT22;2451;49.970;9.068;2022-07-09T04:50:11;15.30;99.90
4874;DHT22;2451;49.970;9.068;2022-07-09T04:52:38;15.40;99.90
4874;DHT22;2451;49.970;9.068;2022-07-09T04:55:04;15.40;99.90
4874;DHT22;2451;49.970;9.068;2022-07-09T04:57:30;15.50;99.90
4874;DHT22;2451;49.970;9.068;2022-07-09T05:00:00;15.60;99.90
4874;DHT22;2451;49.970;9.068;2022-07-09T05:02:25;15.70;99.90
4874;DHT22;2451;49.970;9.068;2022-07-09T05:04:51;15.80;99.90
4874;DHT22;2451;49.970;9.068;2022-07-09T05:07:17;15.80;99.90
4874;DHT22;2451;49.970;9.068;2022-07-09T05:09:42;15.80;99.90
4874;DHT22;2451;49.970;9.068;2022-07-09T05:12:08;15.80;99.90
4874;DHT22;2451;49.970;9.068;2022-07-09T05:14:38;15.80;99.90
4874;DHT22;2451;49.970;9.068;2022-07-09T05:17:05;15.90;99.90
4874;DHT22;2451;49.970;9.068;2022-07-09T05:19:31;15.90;99.90
4874;DHT22;2451;49.970;9.068;2022-07-09T05:21:56;15.90;99.90
4874;DHT22;2451;49.970;9.068;2022-07-09T05:24:22;16.10;99.90
4874;DHT22;2451;49.970;9.068;2022-07-09T05:26:48;16.10;99.90
4874;DHT22;2451;49.970;9.068;2022-07-09T05:29:14;16.30;99.90
4874;DHT22;2451;49.970;9.068;2022-07-09T05:31:40;16.40;99.90
4874;DHT22;2451;49.970;9.068;2022-07-09T05:34:05;16.40;99.90
4874;DHT22;2451;49.970;9.068;2022-07-09T05:36:31;16.50;99.90
4874;DHT22;2451;49.970;9.068;2022-07-09T05:38:58;16.70;99.90
4874;DHT22;2451;49.970;9.068;2022-07-09T05:41:24;16.80;99.90
4874;DHT22;2451;49.970;9.068;2022-07-09T05:43:50;16.90;99.90
4874;DHT22;2451;49.970;9.068;2022-07-09T05:46:16;17.00;99.90
4874;DHT22;2451;49.970;9.068;2022-07-09T05:48:42;17.10;99.90
4874;DHT22;2451;49.970;9.068;2022-07-09T05:51:07;17.10;99.90
4874;DHT22;2451;49.970;9.068;2022-07-09T05:53:33;17.10;99.90
4874;DHT22;2451;49.970;9.068;2022-07-09T05:55:59;17.10;99.90
4874;DHT22;2451;49.970;9.068;2022-07-09T05:58:24;17.20;99.90
4874;DHT22;2451;49.970;9.068;2022-07-09T06:00:50;17.30;99.90
4874;DHT22;2451;49.970;9.068;2022-07-09T06:03:15;17.30;99.90
4874;DHT22;2451;49.970;9.068;2022-07-09T06:05:41;17.50;99.90
4874;DHT22;2451;49.970;9.068;2022-07-09T06:08:06;17.60;99.90
4874;DHT22;2451;49.970;9.068;2022-07-09T06:10:32;17.70;99.90
4874;DHT22;2451;49.970;9.068;2022-07-09T06:12:57;17.80;99.90
4874;DHT22;2451;49.970;9.068;2022-07-09T06:15:23;17.90;99.90
4874;DHT22;2451;49.970;9.068;2022-07-09T06:17:48;18.00;99.90
4874;DHT22;2451;49.970;9.068;2022-07-09T06:20:15;18.10;99.90
4874;DHT22;2451;49.970;9.068;2022-07-09T06:22:41;18.10;99.90
4874;DHT22;2451;49.970;9.068;2022-07-09T06:25:07;18.20;99.90
4874;DHT22;2451;49.970;9.068;2022-07-09T06:27:34;18.20;99.90
4874;DHT22;2451;49.970;9.068;2022-07-09T06:30:00;18.30;99.90
4874;DHT22;2451;49.970;9.068;2022-07-09T06:32:25;18.40;99.90
4874;DHT22;2451;49.970;9.068;2022-07-09T06:34:51;18.50;99.90
4874;DHT22;2451;49.970;9.068;2022-07-09T06:37:17;18.60;99.90
4874;DHT22;2451;49.970;9.068;2022-07-09T06:39:42;18.70;99.90
4874;DHT22;2451;49.970;9.068;2022-07-09T06:42:12;18.70;99.90
4874;DHT22;2451;49.970;9.068;2022-07-09T06:44:38;18.80;99.90
4874;DHT22;2451;49.970;9.068;2022-07-09T06:47:05;19.00;99.90
4874;DHT22;2451;49.970;9.068;2022-07-09T06:49:30;19.10;99.90
4874;DHT22;2451;49.970;9.068;2022-07-09T06:51:56;19.30;99.90
4874;DHT22;2451;49.970;9.068;2022-07-09T06:54:22;19.40;99.90
4874;DHT22;2451;49.970;9.068;2022-07-09T06:56:48;19.70;99.90
4874;DHT22;2451;49.970;9.068;2022-07-09T06:59:14;19.90;99.90
4874;DHT22;2451;49.970;9.068;2022-07-09T07:01:39;20.00;99.90
4874;DHT22;2451;49.970;9.068;2022-07-09T07:04:05;20.20;99.90
4874;DHT22;2451;49.970;9.068;2022-07-09T07:06:31;20.30;99.90
4874;DHT22;2451;49.970;9.068;2022-07-09T07:08:57;20.50;99.90
4874;DHT22;2451;49.970;9.068;2022-07-09T07:11:22;20.70;99.90
4874;DHT22;2451;49.970;9.068;2022-07-09T07:13:48;20.90;99.90
4874;DHT22;2451;49.970;9.068;2022-07-09T07:16:13;21.10;99.90
4874;DHT22;2451;49.970;9.068;2022-07-09T07:18:39;21.30;99.90
4874;DHT22;2451;49.970;9.068;2022-07-09T07:21:05;21.50;99.90
4874;DHT22;2451;49.970;9.068;2022-07-09T07:23:30;21.70;99.90
4874;DHT22;2451;49.970;9.068;2022-07-09T07:25:58;22.00;99.90
4874;DHT22;2451;49.970;9.068;2022-07-09T07:28:23;22.30;99.90
4874;DHT22;2451;49.970;9.068;2022-07-09T07:30:49;22.50;99.90
4874;DHT22;2451;49.970;9.068;2022-07-09T07:33:14;22.70;99.90
4874;DHT22;2451;49.970;9.068;2022-07-09T07:35:40;22.90;99.90
4874;DHT22;2451;49.970;9.068;2022-07-09T07:38:06;23.10;99.90
4874;DHT22;2451;49.970;9.068;2022-07-09T07:40:31;23.00;99.90
4874;DHT22;2451;49.970;9.068;2022-07-09T07:42:57;23.00;99.90
4874;DHT22;2451;49.970;9.068;2022-07-09T07:45:22;23.00;99.90
4874;DHT22;2451;49.970;9.068;2022-07-09T07:47:48;22.90;99.90
4874;DHT22;2451;49.970;9.068;2022-07-09T07:50:14;23.10;99.90
4874;DHT22;2451;49.970;9.068;2022-07-09T07:52:39;23.10;99.90
4874;DHT22;2451;49.970;9.068;2022-07-09T07:55:05;23.30;99.90
4874;DHT22;2451;49.970;9.068;2022-07-09T07:57:30;23.70;99.90
4874;DHT22;2451;49.970;9.068;2022-07-09T07:59:56;24.10;99.90
4874;DHT22;2451;49.970;9.068;2022-07-09T08:02:22;24.30;99.90
4874;DHT22;2451;49.970;9.068;2022-07-09T08:04:47;24.40;99.90
4874;DHT22;2451;49.970;9.068;2022-07-09T08:07:13;24.60;99.90
4874;DHT22;2451;49.970;9.068;2022-07-09T08:09:38;24.60;99.90
4874;DHT22;2451;49.970;9.068;2022-07-09T08:12:04;24.80;99.90
4874;DHT22;2451;49.970;9.068;2022-07-09T08:14:30;25.00;99.90
4874;DHT22;2451;49.970;9.068;2022-07-09T08:16:55;25.00;99.90
4874;DHT22;2451;49.970;9.068;2022-07-09T08:19:21;24.90;99.90
4874;DHT22;2451;49.970;9.068;2022-07-09T08:21:46;24.60;99.90
4874;DHT22;2451;49.970;9.068;2022-07-09T08:24:12;24.20;99.90
4874;DHT22;2451;49.970;9.068;2022-07-09T08:26:37;24.10;99.90
4874;DHT22;2451;49.970;9.068;2022-07-09T08:29:03;23.90;99.90
4874;DHT22;2451;49.970;9.068;2022-07-09T08:31:28;23.80;99.90
4874;DHT22;2451;49.970;9.068;2022-07-09T08:33:54;23.80;99.90
4874;DHT22;2451;49.970;9.068;2022-07-09T08:36:20;23.90;99.90
4874;DHT22;2451;49.970;9.068;2022-07-09T08:38:46;24.00;99.90
4874;DHT22;2451;49.970;9.068;2022-07-09T08:41:12;24.10;99.90
4874;DHT22;2451;49.970;9.068;2022-07-09T08:43:38;24.50;99.90
4874;DHT22;2451;49.970;9.068;2022-07-09T08:46:07;24.70;99.90
4874;DHT22;2451;49.970;9.068;2022-07-09T08:48:34;24.70;99.90
4874;DHT22;2451;49.970;9.068;2022-07-09T08:51:00;24.50;99.90
4874;DHT22;2451;49.970;9.068;2022-07-09T08:53:27;24.60;99.90
4874;DHT22;2451;49.970;9.068;2022-07-09T08:55:56;24.70;99.90
4874;DHT22;2451;49.970;9.068;2022-07-09T08:58:22;24.70;99.90
4874;DHT22;2451;49.970;9.068;2022-07-09T09:00:49;24.60;99.90
4874;DHT22;2451;49.970;9.068;2022-07-09T09:03:17;24.60;99.90
4874;DHT22;2451;49.970;9.068;2022-07-09T09:05:43;24.30;99.90
4874;DHT22;2451;49.970;9.068;2022-07-09T09:08:21;24.30;99.90
4874;DHT22;2451;49.970;9.068;2022-07-09T09:10:49;24.40;99.90
4874;DHT22;2451;49.970;9.068;2022-07-09T09:13:16;24.60;99.90
4874;DHT22;2451;49.970;9.068;2022-07-09T09:15:44;24.70;99.90
4874;DHT22;2451;49.970;9.068;2022-07-09T09:18:10;24.90;99.90
4874;DHT22;2451;49.970;9.068;2022-07-09T09:20:36;24.90;99.90
4874;DHT22;2451;49.970;9.068;2022-07-09T09:23:03;24.70;99.90
4874;DHT22;2451;49.970;9.068;2022-07-09T09:25:30;24.60;99.90
4874;DHT22;2451;49.970;9.068;2022-07-09T09:27:58;24.40;99.90
4874;DHT22;2451;49.970;9.068;2022-07-09T09:30:25;24.00;99.90
4874;DHT22;2451;49.970;9.068;2022-07-09T09:32:58;23.80;99.90
4874;DHT22;2451;49.970;9.068;2022-07-09T09:35:35;23.80;99.90
4874;DHT22;2451;49.970;9.068;2022-07-09T09:38:01;23.60;99.90
4874;DHT22;2451;49.970;9.068;2022-07-09T09:40:27;23.50;99.90
4874;DHT22;2451;49.970;9.068;2022-07-09T09:42:53;23.60;99.90
4874;DHT22;2451;49.970;9.068;2022-07-09T09:45:19;24.10;99.90
4874;DHT22;2451;49.970;9.068;2022-07-09T09:47:49;24.70;99.90
4874;DHT22;2451;49.970;9.068;2022-07-09T09:50:25;25.30;99.90
4874;DHT22;2451;49.970;9.068;2022-07-09T09:52:53;25.70;99.90
4874;DHT22;2451;49.970;9.068;2022-07-09T09:55:21;26.00;99.90
4874;DHT22;2451;49.970;9.068;2022-07-09T09:57:48;26.20;99.90
4874;DHT22;2451;49.970;9.068;2022-07-09T10:00:15;26.50;99.90
4874;DHT22;2451;49.970;9.068;2022-07-09T10:02:49;26.70;99.90
4874;DHT22;2451;49.970;9.068;2022-07-09T10:05:16;26.20;98.20
4874;DHT22;2451;49.970;9.068;2022-07-09T10:07:43;26.00;99.00
4874;DHT22;2451;49.970;9.068;2022-07-09T10:10:17;25.60;99.80
4874;DHT22;2451;49.970;9.068;2022-07-09T10:12:43;25.60;99.90
4874;DHT22;2451;49.970;9.068;2022-07-09T10:15:20;25.80;99.90
4874;DHT22;2451;49.970;9.068;2022-07-09T10:17:47;26.10;99.30
4874;DHT22;2451;49.970;9.068;2022-07-09T10:20:13;26.30;98.20
4874;DHT22;2451;49.970;9.068;2022-07-09T10:22:45;26.30;97.90
4874;DHT22;2451;49.970;9.068;2022-07-09T10:25:26;26.30;97.60
4874;DHT22;2451;49.970;9.068;2022-07-09T10:27:52;26.50;98.00
4874;DHT22;2451;49.970;9.068;2022-07-09T10:30:24;26.30;97.20
4874;DHT22;2451;49.970;9.068;2022-07-09T10:33:22;26.20;96.80
4874;DHT22;2451;49.970;9.068;2022-07-09T10:35:52;26.00;97.60
4874;DHT22;2451;49.970;9.068;2022-07-09T10:38:19;25.90;97.30
4874;DHT22;2451;49.970;9.068;2022-07-09T10:40:56;25.70;97.10
4874;DHT22;2451;49.970;9.068;2022-07-09T10:43:38;25.50;95.90
4874;DHT22;2451;49.970;9.068;2022-07-09T10:46:12;25.30;94.90
4874;DHT22;2451;49.970;9.068;2022-07-09T10:48:38;25.10;95.20
4874;DHT22;2451;49.970;9.068;2022-07-09T10:51:03;25.10;95.70
4874;DHT22;2451;49.970;9.068;2022-07-09T10:53:29;24.90;95.30
4874;DHT22;2451;49.970;9.068;2022-07-09T10:55:55;24.70;95.70
4874;DHT22;2451;49.970;9.068;2022-07-09T10:58:23;25.00;96.40
4874;DHT22;2451;49.970;9.068;2022-07-09T11:00:59;25.80;97.30
4874;DHT22;2451;49.970;9.068;2022-07-09T11:03:29;26.50;95.60
4874;DHT22;2451;49.970;9.068;2022-07-09T11:05:56;27.00;93.30
4874;DHT22;2451;49.970;9.068;2022-07-09T11:08:22;27.00;92.20
4874;DHT22;2451;49.970;9.068;2022-07-09T11:10:48;26.80;91.90
4874;DHT22;2451;49.970;9.068;2022-07-09T11:13:14;26.50;92.60
4874;DHT22;2451;49.970;9.068;2022-07-09T11:15:40;26.40;93.30
4874;DHT22;2451;49.970;9.068;2022-07-09T11:18:13;26.60;94.00
4874;DHT22;2451;49.970;9.068;2022-07-09T11:20:45;26.60;92.40
4874;DHT22;2451;49.970;9.068;2022-07-09T11:23:13;26.70;92.60
4874;DHT22;2451;49.970;9.068;2022-07-09T11:25:39;26.80;92.80
4874;DHT22;2451;49.970;9.068;2022-07-09T11:28:05;26.70;93.40
4874;DHT22;2451;49.970;9.068;2022-07-09T11:30:31;26.40;93.20
4874;DHT22;2451;49.970;9.068;2022-07-09T11:33:02;26.40;93.20
4874;DHT22;2451;49.970;9.068;2022-07-09T11:35:32;26.20;91.90
4874;DHT22;2451;49.970;9.068;2022-07-09T11:38:01;26.00;91.60
4874;DHT22;2451;49.970;9.068;2022-07-09T11:40:28;25.60;92.30
4874;DHT22;2451;49.970;9.068;2022-07-09T11:42:54;25.60;92.50
4874;DHT22;2451;49.970;9.068;2022-07-09T11:45:21;26.10;93.80
4874;DHT22;2451;49.970;9.068;2022-07-09T11:47:47;26.70;91.90
4874;DHT22;2451;49.970;9.068;2022-07-09T11:50:15;27.40;90.80
4874;DHT22;2451;49.970;9.068;2022-07-09T11:52:48;27.90;89.10
4874;DHT22;2451;49.970;9.068;2022-07-09T11:55:28;28.20;85.90
4874;DHT22;2451;49.970;9.068;2022-07-09T11:58:07;28.80;85.20
4874;DHT22;2451;49.970;9.068;2022-07-09T12:00:40;29.00;83.40
4874;DHT22;2451;49.970;9.068;2022-07-09T12:03:05;28.70;79.50
4874;DHT22;2451;49.970;9.068;2022-07-09T12:05:36;28.60;78.80
4874;DHT22;2451;49.970;9.068;2022-07-09T12:08:04;28.20;79.20
4874;DHT22;2451;49.970;9.068;2022-07-09T12:10:37;28.60;80.40
4874;DHT22;2451;49.970;9.068;2022-07-09T12:13:05;28.80;81.80
4874;DHT22;2451;49.970;9.068;2022-07-09T12:15:31;29.20;82.10
4874;DHT22;2451;49.970;9.068;2022-07-09T12:17:59;29.60;81.70
4874;DHT22;2451;49.970;9.068;2022-07-09T12:20:26;29.70;77.60
4874;DHT22;2451;49.970;9.068;2022-07-09T12:22:52;29.40;73.60
4874;DHT22;2451;49.970;9.068;2022-07-09T12:25:18;28.90;75.70
4874;DHT22;2451;49.970;9.068;2022-07-09T12:27:45;28.70;77.00
4874;DHT22;2451;49.970;9.068;2022-07-09T12:30:11;28.40;77.60
4874;DHT22;2451;49.970;9.068;2022-07-09T12:32:37;27.90;78.30
4874;DHT22;2451;49.970;9.068;2022-07-09T12:35:03;27.70;78.10
4874;DHT22;2451;49.970;9.068;2022-07-09T12:37:29;27.60;79.40
4874;DHT22;2451;49.970;9.068;2022-07-09T12:39:54;27.20;79.90
4874;DHT22;2451;49.970;9.068;2022-07-09T12:42:21;27.00;81.90
4874;DHT22;2451;49.970;9.068;2022-07-09T12:44:47;26.80;79.90
4874;DHT22;2451;49.970;9.068;2022-07-09T12:47:13;26.60;81.00
4874;DHT22;2451;49.970;9.068;2022-07-09T12:49:38;26.60;82.60
4874;DHT22;2451;49.970;9.068;2022-07-09T12:52:04;26.40;81.60
4874;DHT22;2451;49.970;9.068;2022-07-09T12:54:29;26.40;83.00
4874;DHT22;2451;49.970;9.068;2022-07-09T12:56:55;26.40;83.40
4874;DHT22;2451;49.970;9.068;2022-07-09T12:59:21;26.40;84.30
4874;DHT22;2451;49.970;9.068;2022-07-09T13:01:47;26.70;85.20
4874;DHT22;2451;49.970;9.068;2022-07-09T13:04:13;26.80;84.10
4874;DHT22;2451;49.970;9.068;2022-07-09T13:06:39;26.90;82.60
4874;DHT22;2451;49.970;9.068;2022-07-09T13:09:06;27.10;85.00
4874;DHT22;2451;49.970;9.068;2022-07-09T13:11:33;27.10;83.30
4874;DHT22;2451;49.970;9.068;2022-07-09T13:13:58;27.20;82.00
4874;DHT22;2451;49.970;9.068;2022-07-09T13:16:24;27.20;80.50
4874;DHT22;2451;49.970;9.068;2022-07-09T13:18:50;27.50;83.00
4874;DHT22;2451;49.970;9.068;2022-07-09T13:21:17;27.60;82.20
4874;DHT22;2451;49.970;9.068;2022-07-09T13:23:43;27.70;82.80
4874;DHT22;2451;49.970;9.068;2022-07-09T13:26:08;27.80;81.90
4874;DHT22;2451;49.970;9.068;2022-07-09T13:28:34;27.70;81.80
4874;DHT22;2451;49.970;9.068;2022-07-09T13:30:59;27.80;80.70
4874;DHT22;2451;49.970;9.068;2022-07-09T13:33:25;27.80;81.50
4874;DHT22;2451;49.970;9.068;2022-07-09T13:35:50;27.70;81.90
4874;DHT22;2451;49.970;9.068;2022-07-09T13:38:16;27.50;80.70
4874;DHT22;2451;49.970;9.068;2022-07-09T13:40:41;27.60;80.90
4874;DHT22;2451;49.970;9.068;2022-07-09T13:43:07;28.00;80.70
4874;DHT22;2451;49.970;9.068;2022-07-09T13:45:33;28.10;76.80
4874;DHT22;2451;49.970;9.068;2022-07-09T13:47:58;28.10;77.70
4874;DHT22;2451;49.970;9.068;2022-07-09T13:50:24;27.80;78.00
4874;DHT22;2451;49.970;9.068;2022-07-09T13:52:49;27.60;79.70
4874;DHT22;2451;49.970;9.068;2022-07-09T13:55:15;27.40;81.60
4874;DHT22;2451;49.970;9.068;2022-07-09T13:57:41;27.30;80.70
4874;DHT22;2451;49.970;9.068;2022-07-09T14:00:07;26.90;80.50
4874;DHT22;2451;49.970;9.068;2022-07-09T14:02:33;27.10;82.20
4874;DHT22;2451;49.970;9.068;2022-07-09T14:05:00;27.60;77.80
4874;DHT22;2451;49.970;9.068;2022-07-09T14:07:25;28.10;76.60
4874;DHT22;2451;49.970;9.068;2022-07-09T14:09:51;28.30;74.30
4874;DHT22;2451;49.970;9.068;2022-07-09T14:12:17;28.30;75.10
4874;DHT22;2451;49.970;9.068;2022-07-09T14:14:43;27.70;73.80
4874;DHT22;2451;49.970;9.068;2022-07-09T14:17:09;27.40;73.70
4874;DHT22;2451;49.970;9.068;2022-07-09T14:19:35;27.30;73.20
4874;DHT22;2451;49.970;9.068;2022-07-09T14:22:00;27.10;71.40
4874;DHT22;2451;49.970;9.068;2022-07-09T14:24:26;26.90;72.90
4874;DHT22;2451;49.970;9.068;2022-07-09T14:26:52;26.70;72.80
4874;DHT22;2451;49.970;9.068;2022-07-09T14:29:17;26.70;76.20
4874;DHT22;2451;49.970;9.068;2022-07-09T14:31:43;26.70;75.30
4874;DHT22;2451;49.970;9.068;2022-07-09T14:34:09;26.50;74.30
4874;DHT22;2451;49.970;9.068;2022-07-09T14:36:34;26.50;73.90
4874;DHT22;2451;49.970;9.068;2022-07-09T14:39:00;26.50;75.60
4874;DHT22;2451;49.970;9.068;2022-07-09T14:41:28;26.60;77.20
4874;DHT22;2451;49.970;9.068;2022-07-09T14:43:54;26.70;74.60
4874;DHT22;2451;49.970;9.068;2022-07-09T14:46:19;27.10;73.50
4874;DHT22;2451;49.970;9.068;2022-07-09T14:48:45;27.40;71.90
4874;DHT22;2451;49.970;9.068;2022-07-09T14:51:10;27.60;71.80
4874;DHT22;2451;49.970;9.068;2022-07-09T14:53:36;27.80;73.50
4874;DHT22;2451;49.970;9.068;2022-07-09T14:56:02;28.10;73.50
4874;DHT22;2451;49.970;9.068;2022-07-09T14:58:28;28.20;72.00
4874;DHT22;2451;49.970;9.068;2022-07-09T15:00:54;28.00;72.30
4874;DHT22;2451;49.970;9.068;2022-07-09T15:03:20;28.00;72.60
4874;DHT22;2451;49.970;9.068;2022-07-09T15:05:45;28.20;74.00
4874;DHT22;2451;49.970;9.068;2022-07-09T15:08:11;28.20;73.00
4874;DHT22;2451;49.970;9.068;2022-07-09T15:10:37;28.00;72.90
4874;DHT22;2451;49.970;9.068;2022-07-09T15:13:03;27.70;72.70
4874;DHT22;2451;49.970;9.068;2022-07-09T15:15:31;27.30;73.40
4874;DHT22;2451;49.970;9.068;2022-07-09T15:17:56;27.20;73.00
4874;DHT22;2451;49.970;9.068;2022-07-09T15:20:22;27.00;73.30
4874;DHT22;2451;49.970;9.068;2022-07-09T15:22:47;26.90;74.20
4874;DHT22;2451;49.970;9.068;2022-07-09T15:25:13;26.80;73.60
4874;DHT22;2451;49.970;9.068;2022-07-09T15:27:39;26.70;73.90
4874;DHT22;2451;49.970;9.068;2022-07-09T15:30:06;26.70;75.30
4874;DHT22;2451;49.970;9.068;2022-07-09T15:32:31;27.10;73.80
4874;DHT22;2451;49.970;9.068;2022-07-09T15:34:57;27.20;71.90
4874;DHT22;2451;49.970;9.068;2022-07-09T15:37:23;27.10;71.50
4874;DHT22;2451;49.970;9.068;2022-07-09T15:39:48;27.10;73.20
4874;DHT22;2451;49.970;9.068;2022-07-09T15:42:14;27.00;75.00
4874;DHT22;2451;49.970;9.068;2022-07-09T15:44:39;26.90;74.00
4874;DHT22;2451;49.970;9.068;2022-07-09T15:47:05;26.70;72.20
4874;DHT22;2451;49.970;9.068;2022-07-09T15:49:30;26.40;71.70
4874;DHT22;2451;49.970;9.068;2022-07-09T15:51:57;26.20;71.70
4874;DHT22;2451;49.970;9.068;2022-07-09T15:54:22;26.10;73.30
4874;DHT22;2451;49.970;9.068;2022-07-09T15:56:49;25.90;73.10